Kipany — WDD7913 — position and weather

sailwx.info

Track history (hours):
 
Tides and Currents Weather Stations Pressure Air Temp Water Temp Dewpoint Dewpoint Depression Visibility Wind Speed Wind Dir Waves Ship Positions

Kipany

Owner: Im Kipany, LLC, Ft. Lauderdale, FL. More information available from US FCC via Universal Licensing System and Coast Guard Vessel Documentation Center.

Last reported at 2015-Aug-03 21:31 UTC. Time now 2015-Aug-04 03:25 UTC.
Position N 41°29' W 071°19'.

Length 35 m; draft 2 m.

Type: Pleasure craft. MMSI: 367192870.

Date/timePositionNaut miles runAvg speedWind from/ knotsBaromVisibWave heightAir tempDewpointWater temp
2015-Aug-03 21:31N 41°29' W 071°19'0 0.0
2015-Aug-03 20:25N 41°29' W 071°19'0 0.0
2015-Aug-03 19:31N 41°29' W 071°19'0 0.0
2015-Aug-03 18:31N 41°29' W 071°19'0 0.0
2015-Aug-03 17:31N 41°29' W 071°19'0 0.1
2015-Aug-03 16:32N 41°29' W 071°19'1010.0
2015-Aug-03 15:34N 41°21' W 071°27'1010.3
2015-Aug-03 14:34N 41°13' W 071°36'2 2.3
2015-Aug-03 13:32N 41°11' W 071°35'0 0.0
2015-Aug-03 12:31N 41°11' W 071°35'0 0.0
2015-Aug-03 11:30N 41°11' W 071°35'0 0.0
2015-Aug-03 10:32N 41°11' W 071°35'0 0.0
2015-Aug-03 09:32N 41°11' W 071°35'0 0.0
2015-Aug-03 08:31N 41°11' W 071°35'0 0.0
2015-Aug-03 07:31N 41°11' W 071°35'0 0.0
2015-Aug-03 06:31N 41°11' W 071°35'0 0.0
2015-Aug-03 05:33N 41°11' W 071°35'0 0.0
2015-Aug-03 04:31N 41°11' W 071°35'0 0.0
2015-Aug-03 03:28N 41°11' W 071°35'0 0.0
2015-Aug-03 02:32N 41°11' W 071°35'0 0.0
2015-Aug-03 01:32N 41°11' W 071°35'0 0.0
2015-Aug-03 00:32N 41°11' W 071°35'0 0.0
2015-Aug-02 23:32N 41°11' W 071°35'0 0.0
2015-Aug-02 22:32N 41°11' W 071°35'0 0.0
2015-Aug-02 21:29N 41°11' W 071°35'0 0.0
2015-Aug-02 20:32N 41°11' W 071°35'0 0.0
2015-Aug-02 19:32N 41°11' W 071°35'0 0.0
2015-Aug-02 18:32N 41°11' W 071°35'0 0.0
2015-Aug-02 17:32N 41°11' W 071°35'0 0.0
2015-Aug-02 16:32N 41°11' W 071°35'0 0.0
2015-Aug-02 15:32N 41°11' W 071°35'0 0.0
2015-Aug-02 14:29N 41°11' W 071°35'0 0.0
2015-Aug-02 13:32N 41°11' W 071°35'0 0.0
2015-Aug-02 12:32N 41°11' W 071°35'0 0.0
2015-Aug-02 11:32N 41°11' W 071°35'0 0.0
2015-Aug-02 10:32N 41°11' W 071°35'0 0.0
2015-Aug-02 09:32N 41°11' W 071°35'0 0.0
2015-Aug-02 08:32N 41°11' W 071°35'0 0.0
2015-Aug-02 07:32N 41°11' W 071°35'0 0.0
2015-Aug-02 06:32N 41°11' W 071°35'0 0.0
2015-Aug-02 05:32N 41°11' W 071°35'0 0.0
2015-Aug-02 04:32N 41°11' W 071°35'0 0.0
2015-Aug-02 03:32N 41°11' W 071°35'0 0.0
2015-Aug-02 02:32N 41°11' W 071°35'0 0.0
2015-Aug-02 01:32N 41°11' W 071°35'0 0.0
2015-Aug-02 00:32N 41°11' W 071°35'0 0.0
2015-Aug-01 23:32N 41°11' W 071°35'0 0.0
2015-Aug-01 22:32N 41°11' W 071°35'0 0.0
2015-Aug-01 21:32N 41°11' W 071°35'0 0.0
2015-Aug-01 20:32N 41°11' W 071°35'0 0.0
2015-Aug-01 19:32N 41°11' W 071°35'0 0.0
2015-Aug-01 18:32N 41°11' W 071°35'0 0.0
2015-Aug-01 17:29N 41°11' W 071°35'0 0.0
2015-Aug-01 16:32N 41°11' W 071°35'0 0.4
2015-Aug-01 15:33N 41°11' W 071°35'5 4.8
2015-Aug-01 14:33N 41°14' W 071°41'1111.2
2015-Aug-01 13:33N 41°18' W 071°54'2 2.0
2015-Aug-01 12:33N 41°19' W 071°52'0 0.0
2015-Aug-01 11:31N 41°19' W 071°52'0 0.0
2015-Aug-01 10:31N 41°19' W 071°52'0 0.0
2015-Aug-01 09:28N 41°19' W 071°52'0 0.0
2015-Aug-01 08:28N 41°19' W 071°52'0 0.0
2015-Aug-01 07:31N 41°19' W 071°52'0 0.0
2015-Aug-01 06:31N 41°19' W 071°52'0 0.0
2015-Aug-01 05:31N 41°19' W 071°52'0 0.0
2015-Aug-01 04:31N 41°19' W 071°52'0 0.0
2015-Aug-01 03:31N 41°19' W 071°52'0 0.0
2015-Aug-01 02:31N 41°19' W 071°52'0 0.0
2015-Aug-01 01:31N 41°19' W 071°51'0 0.0
2015-Aug-01 00:31N 41°19' W 071°52'0 0.0
2015-Jul-31 23:31N 41°19' W 071°52'0 0.0
2015-Jul-31 22:31N 41°19' W 071°52'0 0.0
2015-Jul-31 21:31N 41°19' W 071°52'0 0.0
2015-Jul-31 12:24N 41°19' W 071°52'0 0.0
2015-Jul-31 11:29N 41°19' W 071°52'0 0.0
2015-Jul-31 10:31N 41°19' W 071°52'0 0.0
2015-Jul-31 09:31N 41°19' W 071°52'0 0.0
2015-Jul-31 08:22N 41°19' W 071°52'0 0.0
2015-Jul-31 07:30N 41°19' W 071°52'0 0.0
2015-Jul-31 06:31N 41°19' W 071°52'0 0.0
2015-Jul-31 05:31N 41°19' W 071°52'0 0.0
2015-Jul-31 04:31N 41°19' W 071°52'0 0.0
2015-Jul-31 03:31N 41°19' W 071°52'0 0.0
2015-Jul-31 02:31N 41°19' W 071°52'0 0.0
2015-Jul-31 01:31N 41°19' W 071°52'0 0.0
2015-Jul-31 00:31N 41°19' W 071°52'0 0.0
2015-Jul-30 23:28N 41°19' W 071°52'0 0.0
2015-Jul-30 22:28N 41°19' W 071°52'0 0.0
2015-Jul-30 21:31N 41°19' W 071°52'0 0.0
2015-Jul-30 20:31N 41°19' W 071°52'0 0.0
2015-Jul-30 19:31N 41°19' W 071°52'0 0.0
2015-Jul-30 18:31N 41°19' W 071°52'0 0.0
2015-Jul-30 17:31N 41°19' W 071°52'0 0.0
2015-Jul-30 16:31N 41°19' W 071°52'0 0.0
2015-Jul-30 15:31N 41°19' W 071°52'0 0.0
2015-Jul-30 14:31N 41°19' W 071°52'0 0.0
2015-Jul-30 13:28N 41°19' W 071°52'0 0.0
2015-Jul-30 12:31N 41°19' W 071°52'0 0.0
2015-Jul-30 11:31N 41°19' W 071°52'0 0.0
2015-Jul-30 10:31N 41°19' W 071°52'0 0.0
2015-Jul-30 09:31N 41°19' W 071°52'0 0.0
2015-Jul-30 08:31N 41°19' W 071°51'0 0.0
2015-Jul-30 07:31N 41°19' W 071°52'0 0.0
2015-Jul-30 06:31N 41°19' W 071°52'0 0.0
2015-Jul-30 05:31N 41°19' W 071°52'0 0.0
2015-Jul-30 04:31N 41°19' W 071°52'0 0.0
2015-Jul-30 03:28N 41°19' W 071°52'0 0.0
2015-Jul-30 02:31N 41°19' W 071°52'0 0.0
2015-Jul-30 01:32N 41°19' W 071°52'0 0.0
2015-Jul-30 00:31N 41°19' W 071°52'0 0.0
2015-Jul-29 23:31N 41°19' W 071°52'0 0.0
2015-Jul-29 22:31N 41°19' W 071°52'0 0.0
2015-Jul-29 21:31N 41°19' W 071°52'0 0.0
2015-Jul-29 20:31N 41°19' W 071°52'0 0.0
2015-Jul-29 19:31N 41°19' W 071°52'0 0.0
2015-Jul-29 18:31N 41°19' W 071°52'0 0.0
2015-Jul-29 17:31N 41°19' W 071°52'0 0.0
2015-Jul-29 16:28N 41°19' W 071°52'0 0.0
2015-Jul-29 15:28N 41°19' W 071°52'0 0.0
2015-Jul-29 14:32N 41°19' W 071°52'0 0.0
2015-Jul-29 13:30N 41°19' W 071°52'0 0.0
2015-Jul-29 12:28N 41°19' W 071°52'0 0.0
2015-Jul-29 11:28N 41°19' W 071°52'0 0.0
2015-Jul-29 10:28N 41°19' W 071°52'0 0.0
2015-Jul-29 09:31N 41°19' W 071°52'0 0.0
2015-Jul-29 08:31N 41°19' W 071°52'0 0.0
2015-Jul-29 07:31N 41°19' W 071°52'0 0.0
2015-Jul-29 06:31N 41°19' W 071°52'0 0.0
2015-Jul-29 05:31N 41°19' W 071°52'0 0.0
2015-Jul-29 04:31N 41°19' W 071°52'0 0.0
2015-Jul-29 03:31N 41°19' W 071°52'0 0.0
2015-Jul-29 02:31N 41°19' W 071°52'0 0.0
2015-Jul-29 01:28N 41°19' W 071°52'0 0.0
2015-Jul-29 00:31N 41°19' W 071°52'0 0.0
2015-Jul-28 23:28N 41°19' W 071°52'0 0.0
2015-Jul-28 22:31N 41°19' W 071°52'0 0.0
2015-Jul-28 21:31N 41°19' W 071°52'0 0.0
2015-Jul-28 20:25N 41°19' W 071°52'0 0.0
2015-Jul-28 19:31N 41°19' W 071°52'0 0.0
2015-Jul-28 18:31N 41°19' W 071°52'0 0.0
2015-Jul-28 17:31N 41°19' W 071°52'0 0.0
2015-Jul-28 16:31N 41°19' W 071°52'0 0.0
2015-Jul-28 15:31N 41°19' W 071°52'0 0.0
2015-Jul-28 14:31N 41°19' W 071°52'0 0.0
2015-Jul-28 13:31N 41°19' W 071°52'0 0.0
2015-Jul-28 12:31N 41°19' W 071°52'0 0.0
2015-Jul-28 11:31N 41°19' W 071°52'0 0.0
2015-Jul-28 10:31N 41°19' W 071°52'0 0.0
2015-Jul-28 09:31N 41°19' W 071°52'0 0.0
2015-Jul-28 08:31N 41°19' W 071°52'0 0.0
2015-Jul-28 07:31N 41°19' W 071°52'0 0.0
2015-Jul-28 06:31N 41°19' W 071°52'0 0.0
2015-Jul-28 05:31N 41°19' W 071°52'0 0.0
2015-Jul-28 04:31N 41°19' W 071°51'0 0.0
2015-Jul-28 03:31N 41°19' W 071°52'0 0.0
2015-Jul-28 02:31N 41°19' W 071°52'0 0.0
2015-Jul-28 01:31N 41°19' W 071°52'0 0.0
2015-Jul-28 00:31N 41°19' W 071°52'0 0.0
2015-Jul-27 23:31N 41°19' W 071°52'0 0.0
2015-Jul-27 22:31N 41°19' W 071°52'0 0.0
2015-Jul-27 21:31N 41°19' W 071°52'0 0.0
2015-Jul-27 20:31N 41°19' W 071°52'0 0.0
2015-Jul-27 19:31N 41°19' W 071°51'0 0.0
2015-Jul-27 18:31N 41°19' W 071°52'0 0.0
2015-Jul-27 17:31N 41°19' W 071°52'0 0.0
2015-Jul-27 16:31N 41°19' W 071°52'0 0.0
2015-Jul-27 15:31N 41°19' W 071°52'0 0.0
2015-Jul-27 14:31N 41°19' W 071°52'0 0.0
2015-Jul-27 13:19N 41°19' W 071°52'0 0.0
2015-Jul-27 12:31N 41°19' W 071°52'  
Track history (hours):
 
Tides and Currents Weather Stations Pressure Air Temp Water Temp Dewpoint Dewpoint Depression Visibility Wind Speed Wind Dir Waves Ship Positions

Kipany

Owner: Im Kipany, LLC, Ft. Lauderdale, FL. More information available from US FCC via Universal Licensing System and Coast Guard Vessel Documentation Center.

Last reported at 2015-Aug-03 21:31 UTC. Time now 2015-Aug-04 03:25 UTC.
Position N 41°29' W 071°19'.

Length 35 m; draft 2 m.

Type: Pleasure craft. MMSI: 367192870.

Date/timePositionNaut miles runAvg speedWind from/ knotsBaromVisibWave heightAir tempDewpointWater temp
2015-Aug-03 21:31N 41°29' W 071°19'0 0.0
2015-Aug-03 20:25N 41°29' W 071°19'0 0.0
2015-Aug-03 19:31N 41°29' W 071°19'0 0.0
2015-Aug-03 18:31N 41°29' W 071°19'0 0.0
2015-Aug-03 17:31N 41°29' W 071°19'0 0.1
2015-Aug-03 16:32N 41°29' W 071°19'1010.0
2015-Aug-03 15:34N 41°21' W 071°27'1010.3
2015-Aug-03 14:34N 41°13' W 071°36'2 2.3
2015-Aug-03 13:32N 41°11' W 071°35'0 0.0
2015-Aug-03 12:31N 41°11' W 071°35'0 0.0
2015-Aug-03 11:30N 41°11' W 071°35'0 0.0
2015-Aug-03 10:32N 41°11' W 071°35'0 0.0
2015-Aug-03 09:32N 41°11' W 071°35'0 0.0
2015-Aug-03 08:31N 41°11' W 071°35'0 0.0
2015-Aug-03 07:31N 41°11' W 071°35'0 0.0
2015-Aug-03 06:31N 41°11' W 071°35'0 0.0
2015-Aug-03 05:33N 41°11' W 071°35'0 0.0
2015-Aug-03 04:31N 41°11' W 071°35'0 0.0
2015-Aug-03 03:28N 41°11' W 071°35'0 0.0
2015-Aug-03 02:32N 41°11' W 071°35'0 0.0
2015-Aug-03 01:32N 41°11' W 071°35'0 0.0
2015-Aug-03 00:32N 41°11' W 071°35'0 0.0
2015-Aug-02 23:32N 41°11' W 071°35'0 0.0
2015-Aug-02 22:32N 41°11' W 071°35'0 0.0
2015-Aug-02 21:29N 41°11' W 071°35'0 0.0
2015-Aug-02 20:32N 41°11' W 071°35'0 0.0
2015-Aug-02 19:32N 41°11' W 071°35'0 0.0
2015-Aug-02 18:32N 41°11' W 071°35'0 0.0
2015-Aug-02 17:32N 41°11' W 071°35'0 0.0
2015-Aug-02 16:32N 41°11' W 071°35'0 0.0
2015-Aug-02 15:32N 41°11' W 071°35'0 0.0
2015-Aug-02 14:29N 41°11' W 071°35'0 0.0
2015-Aug-02 13:32N 41°11' W 071°35'0 0.0
2015-Aug-02 12:32N 41°11' W 071°35'0 0.0
2015-Aug-02 11:32N 41°11' W 071°35'0 0.0
2015-Aug-02 10:32N 41°11' W 071°35'0 0.0
2015-Aug-02 09:32N 41°11' W 071°35'0 0.0
2015-Aug-02 08:32N 41°11' W 071°35'0 0.0
2015-Aug-02 07:32N 41°11' W 071°35'0 0.0
2015-Aug-02 06:32N 41°11' W 071°35'0 0.0
2015-Aug-02 05:32N 41°11' W 071°35'0 0.0
2015-Aug-02 04:32N 41°11' W 071°35'0 0.0
2015-Aug-02 03:32N 41°11' W 071°35'0 0.0
2015-Aug-02 02:32N 41°11' W 071°35'0 0.0
2015-Aug-02 01:32N 41°11' W 071°35'0 0.0
2015-Aug-02 00:32N 41°11' W 071°35'0 0.0
2015-Aug-01 23:32N 41°11' W 071°35'0 0.0
2015-Aug-01 22:32N 41°11' W 071°35'0 0.0
2015-Aug-01 21:32N 41°11' W 071°35'0 0.0
2015-Aug-01 20:32N 41°11' W 071°35'0 0.0
2015-Aug-01 19:32N 41°11' W 071°35'0 0.0
2015-Aug-01 18:32N 41°11' W 071°35'0 0.0
2015-Aug-01 17:29N 41°11' W 071°35'0 0.0
2015-Aug-01 16:32N 41°11' W 071°35'0 0.4
2015-Aug-01 15:33N 41°11' W 071°35'5 4.8
2015-Aug-01 14:33N 41°14' W 071°41'1111.2
2015-Aug-01 13:33N 41°18' W 071°54'2 2.0
2015-Aug-01 12:33N 41°19' W 071°52'0 0.0
2015-Aug-01 11:31N 41°19' W 071°52'0 0.0
2015-Aug-01 10:31N 41°19' W 071°52'0 0.0
2015-Aug-01 09:28N 41°19' W 071°52'0 0.0
2015-Aug-01 08:28N 41°19' W 071°52'0 0.0
2015-Aug-01 07:31N 41°19' W 071°52'0 0.0
2015-Aug-01 06:31N 41°19' W 071°52'0 0.0
2015-Aug-01 05:31N 41°19' W 071°52'0 0.0
2015-Aug-01 04:31N 41°19' W 071°52'0 0.0
2015-Aug-01 03:31N 41°19' W 071°52'0 0.0
2015-Aug-01 02:31N 41°19' W 071°52'0 0.0
2015-Aug-01 01:31N 41°19' W 071°51'0 0.0
2015-Aug-01 00:31N 41°19' W 071°52'0 0.0
2015-Jul-31 23:31N 41°19' W 071°52'0 0.0
2015-Jul-31 22:31N 41°19' W 071°52'0 0.0
2015-Jul-31 21:31N 41°19' W 071°52'0 0.0
2015-Jul-31 12:24N 41°19' W 071°52'0 0.0
2015-Jul-31 11:29N 41°19' W 071°52'0 0.0
2015-Jul-31 10:31N 41°19' W 071°52'0 0.0
2015-Jul-31 09:31N 41°19' W 071°52'0 0.0
2015-Jul-31 08:22N 41°19' W 071°52'0 0.0
2015-Jul-31 07:30N 41°19' W 071°52'0 0.0
2015-Jul-31 06:31N 41°19' W 071°52'0 0.0
2015-Jul-31 05:31N 41°19' W 071°52'0 0.0
2015-Jul-31 04:31N 41°19' W 071°52'0 0.0
2015-Jul-31 03:31N 41°19' W 071°52'0 0.0
2015-Jul-31 02:31N 41°19' W 071°52'0 0.0
2015-Jul-31 01:31N 41°19' W 071°52'0 0.0
2015-Jul-31 00:31N 41°19' W 071°52'0 0.0
2015-Jul-30 23:28N 41°19' W 071°52'0 0.0
2015-Jul-30 22:28N 41°19' W 071°52'0 0.0
2015-Jul-30 21:31N 41°19' W 071°52'0 0.0
2015-Jul-30 20:31N 41°19' W 071°52'0 0.0
2015-Jul-30 19:31N 41°19' W 071°52'0 0.0
2015-Jul-30 18:31N 41°19' W 071°52'0 0.0
2015-Jul-30 17:31N 41°19' W 071°52'0 0.0
2015-Jul-30 16:31N 41°19' W 071°52'0 0.0
2015-Jul-30 15:31N 41°19' W 071°52'0 0.0
2015-Jul-30 14:31N 41°19' W 071°52'0 0.0
2015-Jul-30 13:28N 41°19' W 071°52'0 0.0
2015-Jul-30 12:31N 41°19' W 071°52'0 0.0
2015-Jul-30 11:31N 41°19' W 071°52'0 0.0
2015-Jul-30 10:31N 41°19' W 071°52'0 0.0
2015-Jul-30 09:31N 41°19' W 071°52'0 0.0
2015-Jul-30 08:31N 41°19' W 071°51'0 0.0
2015-Jul-30 07:31N 41°19' W 071°52'0 0.0
2015-Jul-30 06:31N 41°19' W 071°52'0 0.0
2015-Jul-30 05:31N 41°19' W 071°52'0 0.0
2015-Jul-30 04:31N 41°19' W 071°52'0 0.0
2015-Jul-30 03:28N 41°19' W 071°52'0 0.0
2015-Jul-30 02:31N 41°19' W 071°52'0 0.0
2015-Jul-30 01:32N 41°19' W 071°52'0 0.0
2015-Jul-30 00:31N 41°19' W 071°52'0 0.0
2015-Jul-29 23:31N 41°19' W 071°52'0 0.0
2015-Jul-29 22:31N 41°19' W 071°52'0 0.0
2015-Jul-29 21:31N 41°19' W 071°52'0 0.0
2015-Jul-29 20:31N 41°19' W 071°52'0 0.0
2015-Jul-29 19:31N 41°19' W 071°52'0 0.0
2015-Jul-29 18:31N 41°19' W 071°52'0 0.0
2015-Jul-29 17:31N 41°19' W 071°52'0 0.0
2015-Jul-29 16:28N 41°19' W 071°52'0 0.0
2015-Jul-29 15:28N 41°19' W 071°52'0 0.0
2015-Jul-29 14:32N 41°19' W 071°52'0 0.0
2015-Jul-29 13:30N 41°19' W 071°52'0 0.0
2015-Jul-29 12:28N 41°19' W 071°52'0 0.0
2015-Jul-29 11:28N 41°19' W 071°52'0 0.0
2015-Jul-29 10:28N 41°19' W 071°52'0 0.0
2015-Jul-29 09:31N 41°19' W 071°52'0 0.0
2015-Jul-29 08:31N 41°19' W 071°52'0 0.0
2015-Jul-29 07:31N 41°19' W 071°52'0 0.0
2015-Jul-29 06:31N 41°19' W 071°52'0 0.0
2015-Jul-29 05:31N 41°19' W 071°52'0 0.0
2015-Jul-29 04:31N 41°19' W 071°52'0 0.0
2015-Jul-29 03:31N 41°19' W 071°52'0 0.0
2015-Jul-29 02:31N 41°19' W 071°52'0 0.0
2015-Jul-29 01:28N 41°19' W 071°52'0 0.0
2015-Jul-29 00:31N 41°19' W 071°52'0 0.0
2015-Jul-28 23:28N 41°19' W 071°52'0 0.0
2015-Jul-28 22:31N 41°19' W 071°52'0 0.0
2015-Jul-28 21:31N 41°19' W 071°52'0 0.0
2015-Jul-28 20:25N 41°19' W 071°52'0 0.0
2015-Jul-28 19:31N 41°19' W 071°52'0 0.0
2015-Jul-28 18:31N 41°19' W 071°52'0 0.0
2015-Jul-28 17:31N 41°19' W 071°52'0 0.0
2015-Jul-28 16:31N 41°19' W 071°52'0 0.0
2015-Jul-28 15:31N 41°19' W 071°52'0 0.0
2015-Jul-28 14:31N 41°19' W 071°52'0 0.0
2015-Jul-28 13:31N 41°19' W 071°52'0 0.0
2015-Jul-28 12:31N 41°19' W 071°52'0 0.0
2015-Jul-28 11:31N 41°19' W 071°52'0 0.0
2015-Jul-28 10:31N 41°19' W 071°52'0 0.0
2015-Jul-28 09:31N 41°19' W 071°52'0 0.0
2015-Jul-28 08:31N 41°19' W 071°52'0 0.0
2015-Jul-28 07:31N 41°19' W 071°52'0 0.0
2015-Jul-28 06:31N 41°19' W 071°52'0 0.0
2015-Jul-28 05:31N 41°19' W 071°52'0 0.0
2015-Jul-28 04:31N 41°19' W 071°51'0 0.0
2015-Jul-28 03:31N 41°19' W 071°52'0 0.0
2015-Jul-28 02:31N 41°19' W 071°52'0 0.0
2015-Jul-28 01:31N 41°19' W 071°52'0 0.0
2015-Jul-28 00:31N 41°19' W 071°52'0 0.0
2015-Jul-27 23:31N 41°19' W 071°52'0 0.0
2015-Jul-27 22:31N 41°19' W 071°52'0 0.0
2015-Jul-27 21:31N 41°19' W 071°52'0 0.0
2015-Jul-27 20:31N 41°19' W 071°52'0 0.0
2015-Jul-27 19:31N 41°19' W 071°51'0 0.0
2015-Jul-27 18:31N 41°19' W 071°52'0 0.0
2015-Jul-27 17:31N 41°19' W 071°52'0 0.0
2015-Jul-27 16:31N 41°19' W 071°52'0 0.0
2015-Jul-27 15:31N 41°19' W 071°52'0 0.0
2015-Jul-27 14:31N 41°19' W 071°52'0 0.0
2015-Jul-27 13:19N 41°19' W 071°52'0 0.0
2015-Jul-27 12:31N 41°19' W 071°52'  

Dump ship's entire track history